Time;durP1;ratioP1;P1;durP2;ratioP2;P2;SDS_P1;SDS_P2;PMS_P1;PMS_P2;Temp;Humidity;BMP_temperature;BMP_pressure;BME280_temperature;BME280_humidity;BME280_pressure;Samples;Min_cycle;Max_cycle;Signal;HPM_P1;HPM_P2
2023/05/26 00:01:14;;;;;;;11.05;8.85;;;;;;;12.07;100.00;95427.69;4867247;29;20040;-78
2023/05/26 00:03:44;;;;;;;9.73;8.45;;;;;;;12.10;100.00;95441.13;4883928;29;20380;-79
2023/05/26 00:06:13;;;;;;;9.60;8.60;;;;;;;11.97;100.00;95429.66;4888670;29;20150;-78
2023/05/26 00:08:39;;;;;;;9.80;9.00;;;;;;;11.71;100.00;95422.13;4890450;29;20076;-77
2023/05/26 00:11:06;;;;;;;8.57;7.97;;;;;;;11.79;100.00;95439.44;4889867;29;20025;-76
2023/05/26 00:13:32;;;;;;;8.30;7.60;;;;;;;11.62;100.00;95425.69;4877048;29;20045;-76
2023/05/26 00:15:57;;;;;;;10.38;7.30;;;;;;;11.72;100.00;95438.50;4883910;29;20056;-76
2023/05/26 00:18:26;;;;;;;8.63;7.82;;;;;;;11.81;100.00;95443.50;4882408;29;20033;-79
2023/05/26 00:20:52;;;;;;;8.63;7.97;;;;;;;11.85;100.00;95442.19;4876802;29;20477;-79
2023/05/26 00:23:17;;;;;;;8.98;8.20;;;;;;;11.97;100.00;95448.66;4888994;29;20422;-79
2023/05/26 00:25:43;;;;;;;8.30;7.53;;;;;;;11.85;100.00;95436.16;4877058;29;20087;-78
2023/05/26 00:28:08;;;;;;;8.68;7.68;;;;;;;11.73;100.00;95420.16;4872301;29;20112;-79
2023/05/26 00:30:34;;;;;;;8.00;7.40;;;;;;;11.79;100.00;95429.88;4889865;29;20029;-79
2023/05/26 00:32:59;;;;;;;9.55;8.05;;;;;;;11.72;100.00;95415.16;4883217;29;20538;-79
2023/05/26 00:35:25;;;;;;;8.50;7.03;;;;;;;11.71;100.00;95414.34;4882438;29;20028;-78
2023/05/26 00:37:50;;;;;;;8.75;7.53;;;;;;;11.63;100.00;95411.72;4889546;29;20064;-78
2023/05/26 00:40:16;;;;;;;8.15;7.15;;;;;;;11.68;100.00;95422.41;4889011;29;20507;-79
2023/05/26 00:42:41;;;;;;;8.15;7.50;;;;;;;11.54;100.00;95420.47;4860665;29;20439;-78
2023/05/26 00:45:07;;;;;;;7.70;7.00;;;;;;;11.67;100.00;95425.97;4874790;29;20035;-78
2023/05/26 00:47:33;;;;;;;7.75;7.25;;;;;;;11.79;100.00;95427.28;4889685;29;20225;-79
2023/05/26 00:49:59;;;;;;;24.00;8.23;;;;;;;11.51;100.00;95407.84;4886544;29;20741;-79
2023/05/26 00:52:25;;;;;;;6.93;6.32;;;;;;;11.44;100.00;95406.88;4878820;29;20855;-79
2023/05/26 00:54:51;;;;;;;8.57;7.97;;;;;;;11.37;100.00;95419.69;4889287;29;20254;-78
2023/05/26 00:57:17;;;;;;;8.80;8.00;;;;;;;11.45;100.00;95424.06;4872197;29;20526;-78
2023/05/26 00:59:43;;;;;;;8.70;8.00;;;;;;;11.39;100.00;95422.13;4890734;29;20032;-80
2023/05/26 01:02:11;;;;;;;25.10;14.98;;;;;;;11.33;100.00;95399.47;4874765;29;20036;-79
2023/05/26 01:04:40;;;;;;;35.42;21.40;;;;;;;11.41;100.00;95410.63;4873916;29;20410;-78
2023/05/26 01:07:06;;;;;;;24.37;16.37;;;;;;;11.47;100.00;95406.56;4876609;29;20036;-79
2023/05/26 01:09:31;;;;;;;23.23;16.00;;;;;;;11.30;100.00;95421.31;4890585;29;20041;-79
2023/05/26 01:12:01;;;;;;;15.57;11.82;;;;;;;11.36;100.00;95432.84;4875835;29;20029;-77
2023/05/26 01:14:36;;;;;;;14.68;11.95;;;;;;;11.35;100.00;95445.00;4873595;29;20542;-76
2023/05/26 01:17:18;;;;;;;9.88;8.98;;;;;;;11.43;100.00;95454.56;4888812;29;20040;-76
2023/05/26 01:20:03;;;;;;;10.38;9.45;;;;;;;11.44;100.00;95454.38;4870791;29;20842;-76
2023/05/26 01:22:43;;;;;;;10.00;9.07;;;;;;;11.29;100.00;95450.00;4874887;29;20127;-77
2023/05/26 01:25:23;;;;;;;9.05;8.32;;;;;;;11.56;100.00;95449.66;4889539;29;20328;-77
2023/05/26 01:28:06;;;;;;;12.65;9.68;;;;;;;11.48;100.00;95447.91;4886254;29;20044;-79
2023/05/26 01:30:34;;;;;;;10.77;8.90;;;;;;;11.10;100.00;95459.75;4884617;29;20041;-77
2023/05/26 01:33:00;;;;;;;9.45;8.15;;;;;;;11.27;100.00;95464.94;4860250;29;20035;-77
2023/05/26 01:35:25;;;;;;;13.40;7.65;;;;;;;11.47;100.00;95455.81;4890054;29;20032;-78
2023/05/26 01:37:51;;;;;;;8.63;7.82;;;;;;;11.52;100.00;95436.22;4886361;29;20400;-78
2023/05/26 01:40:17;;;;;;;9.63;8.85;;;;;;;11.67;100.00;95441.53;4855704;29;20069;-78
2023/05/26 01:42:47;;;;;;;10.48;9.13;;;;;;;11.68;100.00;95439.75;4872274;29;20538;-78
2023/05/26 01:45:16;;;;;;;8.73;7.88;;;;;;;11.70;100.00;95433.47;4855809;29;20033;-78
2023/05/26 01:47:42;;;;;;;8.88;7.55;;;;;;;11.65;100.00;95435.72;4856841;29;20037;-78
2023/05/26 01:50:08;;;;;;;7.80;7.05;;;;;;;11.76;100.00;95450.97;4873872;29;20043;-79
2023/05/26 01:52:36;;;;;;;10.13;8.77;;;;;;;11.46;100.00;95451.63;4856797;29;20391;-78
2023/05/26 01:55:05;;;;;;;7.90;6.97;;;;;;;11.80;100.00;95472.19;4842841;29;20030;-78
2023/05/26 01:57:31;;;;;;;8.38;7.70;;;;;;;11.88;100.00;95472.19;4874311;29;20048;-78
2023/05/26 01:59:57;;;;;;;8.93;7.22;;;;;;;11.79;100.00;95473.16;4857914;29;20037;-78
2023/05/26 02:02:22;;;;;;;8.27;7.53;;;;;;;12.00;100.00;95484.66;4874693;29;20124;-79
2023/05/26 02:04:48;;;;;;;9.43;8.50;;;;;;;12.02;100.00;95481.88;4874944;29;20088;-79
2023/05/26 02:07:14;;;;;;;8.48;7.78;;;;;;;12.04;100.00;95472.16;4874878;29;20700;-78
2023/05/26 02:09:40;;;;;;;8.30;7.50;;;;;;;12.11;100.00;95468.72;4875306;29;20176;-78
2023/05/26 02:12:06;;;;;;;9.65;8.75;;;;;;;12.07;100.00;95472.59;4875614;29;20136;-79
2023/05/26 02:14:31;;;;;;;10.05;8.75;;;;;;;11.98;100.00;95467.59;4876003;29;20487;-79
2023/05/26 02:16:57;;;;;;;9.32;8.40;;;;;;;12.07;100.00;95477.81;4859745;29;20399;-79
2023/05/26 02:19:23;;;;;;;8.93;8.25;;;;;;;12.04;100.00;95478.13;4877536;29;20033;-79
2023/05/26 02:21:48;;;;;;;10.40;8.63;;;;;;;12.04;100.00;95480.72;4876672;29;20041;-79
2023/05/26 02:24:13;;;;;;;9.23;8.32;;;;;;;12.08;100.00;95479.44;4880163;29;20041;-79
2023/05/26 02:26:39;;;;;;;9.32;7.72;;;;;;;11.97;100.00;95477.22;4880085;29;20037;-79
2023/05/26 02:29:04;;;;;;;9.13;7.25;;;;;;;11.88;100.00;95478.16;4886255;29;20064;-79
2023/05/26 02:31:31;;;;;;;8.20;7.55;;;;;;;11.90;100.00;95484.03;4888330;29;20380;-79
2023/05/26 02:33:57;;;;;;;11.15;8.00;;;;;;;11.97;100.00;95497.97;4889022;29;20041;-79
2023/05/26 02:36:22;;;;;;;8.60;7.90;;;;;;;12.02;100.00;95495.69;4909771;29;20032;-80
2023/05/26 02:38:47;;;;;;;8.18;7.15;;;;;;;11.86;100.00;95489.69;4912497;29;20032;-80
2023/05/26 02:41:13;;;;;;;8.18;7.57;;;;;;;11.82;100.00;95486.63;4910526;29;20056;-80
2023/05/26 02:43:39;;;;;;;7.85;7.25;;;;;;;11.90;100.00;95494.41;4892215;29;20089;-79
2023/05/26 02:46:04;;;;;;;8.95;8.10;;;;;;;12.03;100.00;95497.31;4893732;29;20032;-80
2023/05/26 02:48:30;;;;;;;8.77;7.88;;;;;;;12.01;100.00;95499.25;4897068;29;20036;-80
2023/05/26 02:50:59;;;;;;;8.30;7.50;;;;;;;12.03;100.00;95504.28;4893154;29;20029;-80
2023/05/26 02:53:24;;;;;;;8.77;7.93;;;;;;;12.02;100.00;95506.06;4893328;29;20452;-80
2023/05/26 02:55:50;;;;;;;8.73;7.63;;;;;;;12.15;100.00;95510.75;4894510;29;20029;-81
2023/05/26 02:58:15;;;;;;;8.88;8.05;;;;;;;12.28;100.00;95508.44;4894673;29;20048;-81
2023/05/26 03:00:40;;;;;;;8.50;7.75;;;;;;;12.41;100.00;95532.09;4893435;29;20060;-80
2023/05/26 03:03:06;;;;;;;10.57;8.75;;;;;;;12.43;100.00;95532.72;4894234;29;20033;-81
2023/05/26 03:05:32;;;;;;;9.57;8.60;;;;;;;12.44;100.00;95536.94;4896316;29;20024;-80
2023/05/26 03:07:58;;;;;;;8.77;7.85;;;;;;;12.41;100.00;95549.47;4903784;29;20017;-81
2023/05/26 03:10:23;;;;;;;13.98;10.63;;;;;;;12.33;100.00;95546.91;4897055;29;20009;-81
2023/05/26 03:12:49;;;;;;;13.27;10.07;;;;;;;12.35;100.00;95568.31;4900881;29;20037;-81
2023/05/26 03:15:14;;;;;;;16.50;12.00;;;;;;;11.85;100.00;95506.25;5059145;24;20008;-80
2023/05/26 03:20:15;;;;;;;37.97;22.73;;;;;;;11.94;100.00;95529.47;4935613;27;20064;-79
2023/05/26 03:22:41;;;;;;;41.38;22.55;;;;;;;12.34;100.00;95583.09;4916025;29;20068;-79
2023/05/26 03:25:06;;;;;;;59.97;32.35;;;;;;;12.36;100.00;95578.53;4913048;29;20609;-79
2023/05/26 03:27:32;;;;;;;43.47;26.17;;;;;;;12.57;100.00;95593.59;4906512;29;20116;-81
2023/05/26 03:51:38;;;;;;;53.15;25.48;;;;;;;12.90;100.00;95673.09;5175631;23;20107;-84
2023/05/26 03:54:03;;;;;;;55.35;24.65;;;;;;;12.80;100.00;95674.25;5623283;23;20012;-82
2023/05/26 03:56:29;;;;;;;44.42;24.98;;;;;;;12.95;100.00;95677.78;4936926;29;20056;-81
2023/05/26 03:58:54;;;;;;;60.70;28.48;;;;;;;12.98;100.00;95667.84;4921238;29;20032;-82
2023/05/26 04:01:20;;;;;;;59.50;30.05;;;;;;;12.93;100.00;95661.53;4919025;29;20024;-79
2023/05/26 04:03:45;;;;;;;58.58;30.42;;;;;;;12.92;100.00;95667.72;4890200;29;20039;-83
2023/05/26 04:06:11;;;;;;;72.75;31.60;;;;;;;12.97;100.00;95675.84;4909830;29;20127;-82
2023/05/26 04:11:11;;;;;;;69.20;31.30;;;;;;;12.85;100.00;95669.34;5595148;23;20148;-80
2023/05/26 04:16:12;;;;;;;52.75;23.55;;;;;;;12.81;100.00;95675.88;5966897;23;20022;-78
2023/05/26 04:18:39;;;;;;;60.75;30.92;;;;;;;12.91;100.00;95692.09;4929304;29;20092;-82
2023/05/26 04:23:55;;;;;;;60.22;22.05;;;;;;;12.88;100.00;95703.63;5490075;23;20067;-80
2023/05/26 04:26:21;;;;;;;32.03;19.13;;;;;;;12.88;100.00;95710.63;4934249;29;20055;-81
2023/05/26 04:28:47;;;;;;;41.50;21.52;;;;;;;13.00;100.00;95704.91;4929022;29;20047;-82
2023/05/26 04:31:16;;;;;;;34.38;19.92;;;;;;;13.02;100.00;95700.34;4905725;29;20455;-82
2023/05/26 04:33:44;;;;;;;64.38;21.67;;;;;;;12.98;100.00;95706.88;4873512;29;20071;-80
2023/05/26 04:36:10;;;;;;;41.33;21.90;;;;;;;12.93;100.00;95692.75;4911608;29;20064;-82
2023/05/26 04:38:37;;;;;;;47.83;22.33;;;;;;;13.00;100.00;95698.91;4909215;29;20028;-82
2023/05/26 04:41:06;;;;;;;30.17;20.00;;;;;;;13.13;100.00;95696.63;4908716;29;20027;-80
2023/05/26 04:43:34;;;;;;;27.60;19.17;;;;;;;13.18;100.00;95679.53;4892391;29;20031;-82
2023/05/26 04:46:01;;;;;;;29.67;19.13;;;;;;;13.29;100.00;95651.53;4905150;29;20608;-86
2023/05/26 04:48:27;;;;;;;31.75;18.35;;;;;;;13.37;100.00;95634.06;4906730;29;20024;-81
2023/05/26 04:50:53;;;;;;;37.33;21.23;;;;;;;13.43;100.00;95609.16;4889180;29;20386;-82
2023/05/26 04:53:19;;;;;;;35.78;19.23;;;;;;;13.37;100.00;95570.81;4905876;29;20024;-83
2023/05/26 04:55:44;;;;;;;27.85;18.63;;;;;;;13.59;100.00;95572.63;4907456;29;20088;-84
2023/05/26 04:58:10;;;;;;;24.80;17.75;;;;;;;13.59;100.00;95559.59;4892507;29;20383;-80
2023/05/26 05:00:36;;;;;;;27.33;17.50;;;;;;;13.59;100.00;95541.38;4875843;29;20032;-82
2023/05/26 05:03:03;;;;;;;25.40;17.80;;;;;;;13.66;100.00;95524.09;4897734;29;20036;-82
2023/05/26 05:05:29;;;;;;;32.72;19.45;;;;;;;13.37;100.00;95521.38;4927494;29;20028;-78
2023/05/26 05:07:55;;;;;;;35.97;19.90;;;;;;;13.53;100.00;95534.28;4893272;29;20036;-78
2023/05/26 05:10:20;;;;;;;36.53;19.45;;;;;;;13.24;100.00;95573.16;4890670;29;20105;-76
2023/05/26 05:12:46;;;;;;;63.03;23.73;;;;;;;13.36;100.00;95587.41;4891487;29;20040;-78
2023/05/26 05:15:12;;;;;;;36.03;20.42;;;;;;;13.32;100.00;95593.94;4876059;29;20028;-77
2023/05/26 05:17:38;;;;;;;26.60;18.52;;;;;;;13.98;100.00;95585.50;4874520;29;20111;-77
2023/05/26 05:20:07;;;;;;;25.58;16.92;;;;;;;14.17;100.00;95522.47;4878493;29;20020;-78
2023/05/26 05:22:32;;;;;;;;;;;;;;;14.20;100.00;95459.59;4876864;29;20044;-78
2023/05/26 05:24:58;;;;;;;24.10;16.90;;;;;;;14.22;100.00;95403.69;4890888;29;20476;-79
2023/05/26 05:27:23;;;;;;;26.05;18.20;;;;;;;14.36;100.00;95357.81;4889353;29;20032;-78
2023/05/26 05:29:49;;;;;;;25.23;17.27;;;;;;;14.59;100.00;95349.81;4890961;29;20040;-78
2023/05/26 05:32:14;;;;;;;18.23;15.35;;;;;;;14.88;100.00;95317.59;4889900;29;20139;-78
2023/05/26 05:34:40;;;;;;;23.63;16.45;;;;;;;15.10;100.00;95236.50;4906488;29;20036;-80
2023/05/26 05:37:05;;;;;;;22.00;17.75;;;;;;;14.63;100.00;95288.50;4875129;29;20023;-78
2023/05/26 05:39:30;;;;;;;19.75;16.50;;;;;;;14.86;100.00;95320.41;4901978;29;20036;-80
2023/05/26 05:41:56;;;;;;;19.88;15.40;;;;;;;15.06;100.00;95295.28;4890247;29;20040;-80
2023/05/26 05:44:22;;;;;;;20.27;16.65;;;;;;;14.97;100.00;95278.16;4888499;29;20119;-80
2023/05/26 05:46:47;;;;;;;18.77;15.40;;;;;;;14.95;100.00;95269.72;4890436;29;20061;-80
2023/05/26 05:49:12;;;;;;;16.75;15.07;;;;;;;15.29;100.00;95242.84;4889358;29;20446;-80
2023/05/26 05:51:38;;;;;;;15.65;13.95;;;;;;;15.62;100.00;95164.69;4874200;29;20653;-80
2023/05/26 05:54:03;;;;;;;16.15;14.23;;;;;;;15.73;100.00;95132.81;4886931;29;20028;-82
2023/05/26 05:56:29;;;;;;;14.20;12.90;;;;;;;16.06;100.00;95098.88;4873309;29;20052;-82
2023/05/26 05:58:54;;;;;;;12.80;11.60;;;;;;;19.17;100.00;94946.34;4890427;29;20032;-80
2023/05/26 06:01:20;;;;;;;9.38;8.68;;;;;;;20.49;100.00;94901.84;4872697;29;20105;-80
2023/05/26 06:03:45;;;;;;;10.82;9.73;;;;;;;23.49;81.89;94877.69;4888938;29;20068;-82
2023/05/26 06:06:11;;;;;;;10.15;9.32;;;;;;;20.94;99.73;94891.38;4888617;29;20043;-83
2023/05/26 06:08:36;;;;;;;9.65;8.60;;;;;;;21.44;96.15;94886.22;4889958;29;20028;-84
2023/05/26 06:11:04;;;;;;;8.52;7.72;;;;;;;19.32;100.00;94908.13;4889328;29;20028;-86
2023/05/26 06:13:30;;;;;;;9.55;8.65;;;;;;;18.06;100.00;94930.06;4873772;29;20036;-81
2023/05/26 06:15:56;;;;;;;9.90;9.00;;;;;;;18.12;100.00;94947.53;4889987;29;20508;-78
2023/05/26 06:18:21;;;;;;;9.30;8.57;;;;;;;17.85;100.00;94967.97;4885038;29;20059;-81
2023/05/26 06:20:47;;;;;;;10.68;9.68;;;;;;;17.31;100.00;94974.59;4874641;29;20047;-86
2023/05/26 06:23:12;;;;;;;10.07;9.18;;;;;;;18.32;100.00;94953.41;4887412;29;20035;-86
2023/05/26 06:25:38;;;;;;;9.13;8.25;;;;;;;18.80;100.00;94938.53;4870841;29;20033;-84
2023/05/26 06:28:04;;;;;;;9.70;8.80;;;;;;;18.62;100.00;94922.78;4854010;29;20145;-84
2023/05/26 06:30:29;;;;;;;7.68;7.03;;;;;;;20.24;100.00;94903.91;4877654;29;20501;-82
2023/05/26 06:32:55;;;;;;;7.43;6.93;;;;;;;21.91;99.25;94899.06;4849277;29;20043;-80
2023/05/26 06:35:21;;;;;;;9.52;6.68;;;;;;;21.07;93.94;94894.75;4858366;29;20111;-79
2023/05/26 06:37:47;;;;;;;5.90;5.38;;;;;;;22.72;80.87;94894.88;4870722;29;20570;-80
2023/05/26 06:40:12;;;;;;;7.13;6.55;;;;;;;22.76;82.46;94890.69;4853389;29;20419;-79
2023/05/26 06:42:38;;;;;;;7.82;7.22;;;;;;;27.13;61.50;94886.16;4852467;29;20036;-78
2023/05/26 06:45:04;;;;;;;6.93;6.30;;;;;;;26.68;57.36;94890.59;4844359;29;20072;-78
2023/05/26 06:47:29;;;;;;;6.38;5.97;;;;;;;26.82;56.63;94895.34;4854368;29;20043;-77
2023/05/26 06:49:55;;;;;;;7.15;6.47;;;;;;;25.78;60.17;94888.16;4885186;29;20509;-77
2023/05/26 06:52:20;;;;;;;7.70;6.07;;;;;;;24.97;71.78;94880.09;4887134;29;20119;-77
2023/05/26 06:54:46;;;;;;;7.38;6.78;;;;;;;24.00;77.40;94885.97;4854632;29;20017;-77
2023/05/26 06:57:11;;;;;;;6.95;6.45;;;;;;;24.16;73.64;94886.88;4886234;29;20023;-79
2023/05/26 06:59:37;;;;;;;8.95;8.10;;;;;;;23.91;74.88;94893.59;4845841;29;20063;-78
2023/05/26 07:02:02;;;;;;;9.02;8.27;;;;;;;23.62;77.69;94892.31;4852879;29;20101;-80
2023/05/26 07:04:28;;;;;;;8.20;7.50;;;;;;;23.21;77.27;94895.66;4886032;29;20080;-77
2023/05/26 07:06:53;;;;;;;8.48;7.88;;;;;;;22.83;83.62;94900.00;4868070;29;20488;-77
2023/05/26 07:09:19;;;;;;;7.97;7.47;;;;;;;22.19;86.58;94890.22;4866673;29;20569;-76
2023/05/26 07:11:45;;;;;;;9.75;9.05;;;;;;;21.73;88.84;94902.75;4883150;29;20031;-77
2023/05/26 07:14:10;;;;;;;8.93;8.13;;;;;;;21.00;96.09;94898.31;4877399;29;20033;-77
2023/05/26 07:16:35;;;;;;;8.48;7.78;;;;;;;21.02;91.67;94895.47;4875486;29;20115;-76
2023/05/26 07:19:01;;;;;;;9.45;8.65;;;;;;;19.80;100.00;94901.91;4862630;29;20503;-76
2023/05/26 07:21:27;;;;;;;9.32;8.63;;;;;;;19.74;100.00;94895.75;4867383;29;20099;-76
2023/05/26 07:23:53;;;;;;;10.57;9.77;;;;;;;19.95;100.00;94900.41;4882989;29;20080;-78
2023/05/26 07:26:18;;;;;;;9.73;8.85;;;;;;;20.36;100.00;94896.81;4864431;29;20076;-77
2023/05/26 07:28:44;;;;;;;9.38;8.63;;;;;;;19.61;100.00;94903.84;4875247;29;20041;-76
2023/05/26 07:31:10;;;;;;;10.05;9.25;;;;;;;19.24;100.00;94903.16;4862445;29;20037;-76
2023/05/26 07:33:35;;;;;;;10.82;9.93;;;;;;;19.43;100.00;94912.59;4864820;29;20123;-74
2023/05/26 07:36:01;;;;;;;10.73;9.82;;;;;;;19.30;100.00;94909.34;4881922;29;20147;-76
2023/05/26 07:38:26;;;;;;;10.82;9.85;;;;;;;18.86;100.00;94907.97;4868503;29;20169;-76
2023/05/26 07:40:53;;;;;;;10.63;9.52;;;;;;;19.01;100.00;94907.56;4881500;29;20450;-76
2023/05/26 07:43:19;;;;;;;10.75;9.75;;;;;;;19.36;100.00;94903.22;4841153;29;20021;-76
2023/05/26 07:45:45;;;;;;;9.95;9.07;;;;;;;19.33;100.00;94906.25;4862239;29;20124;-76
2023/05/26 07:48:10;;;;;;;10.48;9.57;;;;;;;19.27;100.00;94907.97;4869819;29;20098;-76
2023/05/26 07:50:36;;;;;;;10.70;9.70;;;;;;;19.54;100.00;94923.38;4868476;29;20034;-76
2023/05/26 07:53:02;;;;;;;10.43;9.52;;;;;;;19.45;100.00;94934.22;4881308;29;20037;-76
2023/05/26 07:55:27;;;;;;;9.95;9.15;;;;;;;19.82;100.00;94926.94;4883813;29;20029;-77
2023/05/26 07:57:53;;;;;;;10.27;8.95;;;;;;;20.01;100.00;94919.72;4864348;29;20029;-79
2023/05/26 08:00:18;;;;;;;10.00;8.85;;;;;;;19.69;100.00;94915.81;4852334;29;20607;-76
2023/05/26 08:02:44;;;;;;;12.45;8.43;;;;;;;19.61;100.00;94924.06;4866268;29;20025;-77
2023/05/26 08:05:09;;;;;;;9.77;8.98;;;;;;;19.54;100.00;94918.09;4868188;29;20045;-77
2023/05/26 08:07:35;;;;;;;10.93;9.90;;;;;;;18.89;100.00;94921.44;4866407;29;20120;-76
2023/05/26 08:10:00;;;;;;;9.90;9.15;;;;;;;19.04;100.00;94921.03;4867490;29;20550;-77
2023/05/26 08:12:25;;;;;;;10.18;9.38;;;;;;;18.87;100.00;94925.31;4867301;29;20056;-76
2023/05/26 08:14:51;;;;;;;9.45;8.75;;;;;;;18.91;100.00;94916.00;4851182;29;20518;-76
2023/05/26 08:17:17;;;;;;;10.52;9.63;;;;;;;19.04;100.00;94933.38;4868050;29;20032;-75
2023/05/26 08:19:42;;;;;;;9.00;8.20;;;;;;;19.02;100.00;94930.16;4866302;29;20025;-76
2023/05/26 08:22:08;;;;;;;10.60;9.77;;;;;;;19.00;100.00;94938.28;4867525;29;20072;-74
2023/05/26 08:24:33;;;;;;;10.65;9.82;;;;;;;18.83;100.00;94927.59;4877355;29;20052;-78
2023/05/26 08:26:59;;;;;;;11.32;10.30;;;;;;;19.03;100.00;94943.06;4888370;29;20510;-74
2023/05/26 08:29:24;;;;;;;9.73;9.00;;;;;;;18.99;100.00;94926.16;4889211;29;20028;-76
2023/05/26 08:31:50;;;;;;;9.38;8.55;;;;;;;19.09;100.00;94936.13;4889548;29;20032;-76
2023/05/26 08:34:16;;;;;;;10.40;9.50;;;;;;;18.54;100.00;94932.78;4889725;29;20099;-74
2023/05/26 08:36:42;;;;;;;10.10;9.13;;;;;;;18.44;100.00;94931.47;4888655;29;20044;-77
2023/05/26 08:39:07;;;;;;;11.43;10.32;;;;;;;18.08;100.00;94934.06;4890105;29;20125;-78
2023/05/26 08:41:44;;;;;;;9.77;8.98;;;;;;;18.77;100.00;94938.97;4888242;29;20043;-76
2023/05/26 08:44:11;;;;;;;10.00;8.95;;;;;;;18.89;100.00;94925.88;4907127;29;20401;-77
2023/05/26 08:46:37;;;;;;;9.73;8.88;;;;;;;19.40;100.00;94913.06;4887662;29;20135;-76
2023/05/26 08:49:03;;;;;;;10.23;9.30;;;;;;;19.22;100.00;94907.84;4889586;29;20511;-76
2023/05/26 08:51:31;;;;;;;10.48;8.95;;;;;;;19.33;100.00;94898.38;4891165;29;20524;-76
2023/05/26 08:53:56;;;;;;;8.88;8.05;;;;;;;19.57;100.00;94899.25;4872334;29;20032;-76
2023/05/26 08:56:22;;;;;;;8.40;7.57;;;;;;;20.50;100.00;94886.84;4888488;29;20406;-76
2023/05/26 08:58:49;;;;;;;8.25;7.45;;;;;;;21.04;100.00;94877.59;4898034;29;20187;-76
2023/05/26 09:01:15;;;;;;;7.00;6.40;;;;;;;21.49;100.00;94878.38;4875465;29;20043;-75
2023/05/26 09:03:40;;;;;;;6.35;5.85;;;;;;;21.37;100.00;94868.94;4895281;29;20471;-76
2023/05/26 09:06:06;;;;;;;7.00;6.43;;;;;;;21.69;98.00;94859.44;4888689;29;20066;-76
2023/05/26 09:08:31;;;;;;;7.25;6.70;;;;;;;20.09;100.00;94860.72;4899928;29;20107;-77
2023/05/26 09:10:57;;;;;;;7.05;6.55;;;;;;;20.55;99.57;94854.56;4898942;29;20407;-75
2023/05/26 09:13:23;;;;;;;6.00;5.50;;;;;;;20.83;100.00;94863.28;4890093;29;20040;-76
2023/05/26 09:15:51;;;;;;;5.78;5.28;;;;;;;20.90;96.21;94857.84;4906415;29;20032;-76
2023/05/26 09:18:17;;;;;;;5.85;5.25;;;;;;;21.18;94.24;94841.22;4890857;29;20506;-77
2023/05/26 09:20:47;;;;;;;6.65;4.97;;;;;;;21.26;96.31;94835.56;4892313;29;20112;-77
2023/05/26 09:23:19;;;;;;;4.32;4.03;;;;;;;21.62;93.43;94845.59;4907698;29;20032;-77
2023/05/26 09:25:46;;;;;;;4.65;4.25;;;;;;;21.53;98.19;94849.69;4889625;29;20056;-76
2023/05/26 09:28:14;;;;;;;6.80;4.43;;;;;;;21.46;93.76;94849.84;4890050;29;20394;-77
2023/05/26 09:30:45;;;;;;;4.63;4.03;;;;;;;21.13;96.13;94843.78;4875486;29;20494;-76
2023/05/26 09:33:16;;;;;;;4.57;4.18;;;;;;;21.07;97.75;94834.97;4889118;29;20402;-77
2023/05/26 09:35:43;;;;;;;6.55;4.63;;;;;;;20.76;96.77;94843.38;4875231;29;20044;-77
2023/05/26 09:38:11;;;;;;;5.53;5.10;;;;;;;20.03;100.00;94851.13;4871930;29;20128;-76
2023/05/26 09:40:44;;;;;;;7.13;5.20;;;;;;;20.25;100.00;94857.38;4890634;29;20049;-76
2023/05/26 09:43:10;;;;;;;5.15;4.65;;;;;;;20.60;100.00;94850.19;4889479;29;20034;-76
2023/05/26 09:45:36;;;;;;;5.50;5.00;;;;;;;20.56;100.00;94856.97;4889745;29;20024;-76
2023/05/26 09:48:03;;;;;;;7.20;5.15;;;;;;;20.21;100.00;94856.22;4907343;29;20032;-78
2023/05/26 09:50:34;;;;;;;7.80;5.30;;;;;;;20.05;100.00;94847.22;4882464;29;20036;-77
2023/05/26 09:53:00;;;;;;;5.20;4.60;;;;;;;20.35;100.00;94858.41;4901941;29;20056;-77
2023/05/26 09:55:26;;;;;;;5.40;4.90;;;;;;;19.87;100.00;94850.00;4887184;29;20050;-78
2023/05/26 09:57:52;;;;;;;6.00;4.78;;;;;;;20.53;100.00;94836.38;4888714;29;20467;-78
2023/05/26 10:00:20;;;;;;;5.18;4.65;;;;;;;19.96;100.00;94827.59;4886084;29;20035;-75
2023/05/26 10:02:47;;;;;;;5.05;4.65;;;;;;;19.94;100.00;94835.69;4887340;29;20383;-86
2023/05/26 10:05:13;;;;;;;4.85;4.50;;;;;;;20.35;100.00;94826.84;4879334;29;20036;-75
2023/05/26 10:07:41;;;;;;;4.00;3.70;;;;;;;20.65;100.00;94825.78;4888471;29;20032;-79
2023/05/26 10:10:08;;;;;;;4.55;4.15;;;;;;;20.71;100.00;94838.81;4889962;29;20036;-82
2023/05/26 10:12:35;;;;;;;4.68;3.88;;;;;;;20.65;100.00;94823.16;4888184;29;20487;-76
2023/05/26 10:15:02;;;;;;;5.28;4.07;;;;;;;21.17;100.00;94816.72;4890057;29;20479;-78
2023/05/26 10:17:28;;;;;;;4.55;4.10;;;;;;;21.18;98.07;94823.59;4888244;29;20041;-78
2023/05/26 10:19:55;;;;;;;4.72;4.32;;;;;;;21.46;97.80;94820.06;4887723;29;20406;-78
2023/05/26 10:22:26;;;;;;;5.40;4.35;;;;;;;21.59;100.00;94816.28;4870477;29;20047;-78
2023/05/26 10:24:58;;;;;;;4.13;3.83;;;;;;;21.41;96.21;94812.09;4889417;29;20177;-78
2023/05/26 10:27:47;;;;;;;3.55;3.30;;;;;;;20.71;93.46;94796.69;4870410;29;20037;-81
2023/05/26 10:30:16;;;;;;;3.83;3.50;;;;;;;21.34;90.56;94803.53;4871328;29;20045;-78
2023/05/26 10:32:49;;;;;;;4.50;3.53;;;;;;;21.95;89.63;94802.59;4855170;29;20849;-79
2023/05/26 10:35:28;;;;;;;4.65;4.07;;;;;;;22.40;90.39;94792.56;4887441;29;20036;-80
2023/05/26 10:38:10;;;;;;;3.92;3.58;;;;;;;22.56;86.53;94801.44;4854102;29;20116;-79
2023/05/26 10:40:39;;;;;;;6.78;4.38;;;;;;;22.21;87.26;94791.31;4865898;29;20037;-79
2023/05/26 10:43:13;;;;;;;5.45;3.85;;;;;;;22.75;87.29;94783.44;4842479;29;20033;-76
2023/05/26 10:45:57;;;;;;;6.25;4.47;;;;;;;22.73;84.99;94773.13;4879499;29;20495;-76
2023/05/26 10:48:54;;;;;;;3.30;2.92;;;;;;;22.69;81.05;94773.88;4846329;29;20025;-77
2023/05/26 10:51:28;;;;;;;3.67;2.72;;;;;;;22.07;79.83;94755.75;4872429;29;20040;-77
2023/05/26 10:53:59;;;;;;;3.60;3.30;;;;;;;23.12;79.04;94752.56;4870576;29;20041;-79
2023/05/26 10:56:34;;;;;;;3.13;2.58;;;;;;;23.08;79.29;94748.84;4839174;29;20040;-83
2023/05/26 10:59:00;;;;;;;3.33;2.58;;;;;;;22.74;77.50;94744.84;4846077;29;20055;-82
2023/05/26 11:01:26;;;;;;;3.05;2.30;;;;;;;23.03;69.77;94744.31;4870094;29;20040;-77
2023/05/26 11:03:56;;;;;;;2.40;2.28;;;;;;;23.63;68.47;94735.22;4885682;29;20033;-86
2023/05/26 11:06:47;;;;;;;4.20;2.63;;;;;;;23.78;70.78;94737.13;4885568;29;20033;-82
2023/05/26 11:09:13;;;;;;;3.42;2.67;;;;;;;23.22;71.35;94739.41;4886542;29;20058;-86
2023/05/26 11:11:52;;;;;;;2.60;2.40;;;;;;;23.17;70.66;94723.53;4863073;29;20028;-80
2023/05/26 11:14:44;;;;;;;4.22;2.50;;;;;;;22.72;74.23;94728.47;4869978;29;20044;-78
2023/05/26 11:17:12;;;;;;;3.45;2.58;;;;;;;22.97;72.26;94720.75;4871958;29;20856;-82
2023/05/26 11:19:38;;;;;;;6.18;3.50;;;;;;;22.37;88.98;94726.28;4854097;29;20039;-84
2023/05/26 11:22:15;;;;;;;4.78;4.38;;;;;;;21.98;95.73;94730.88;4863720;29;20044;-89
2023/05/26 11:24:41;;;;;;;4.28;3.88;;;;;;;21.79;93.00;94737.47;4865850;29;20135;-91
2023/05/26 11:27:07;;;;;;;5.97;4.63;;;;;;;21.50;96.95;94731.56;4885190;29;20040;-78
2023/05/26 11:29:32;;;;;;;9.88;4.97;;;;;;;21.45;100.00;94734.91;4911613;29;20036;-83
2023/05/26 11:31:58;;;;;;;5.45;4.68;;;;;;;21.37;100.00;94740.63;4871517;29;20040;-87
2023/05/26 11:34:24;;;;;;;5.32;4.93;;;;;;;21.41;100.00;94749.63;4886875;29;20099;-81
2023/05/26 11:36:54;;;;;;;5.63;5.13;;;;;;;21.53;100.00;94750.31;4882604;29;20047;-84
2023/05/26 11:39:21;;;;;;;4.70;4.22;;;;;;;21.34;100.00;94741.09;4887745;29;20122;-86
2023/05/26 11:41:47;;;;;;;5.22;4.90;;;;;;;21.57;100.00;94744.56;4873620;29;20510;-81
2023/05/26 11:44:13;;;;;;;8.48;5.35;;;;;;;21.47;100.00;94747.88;4895297;29;20594;-82
2023/05/26 11:46:40;;;;;;;7.50;5.80;;;;;;;21.13;100.00;94770.81;4883248;29;20119;-82
2023/05/26 11:49:15;;;;;;;6.25;5.78;;;;;;;21.38;100.00;94758.00;4888487;29;20056;-79
2023/05/26 11:51:46;;;;;;;7.75;5.38;;;;;;;21.17;100.00;94757.94;4881792;29;20032;-85
2023/05/26 11:54:12;;;;;;;5.10;4.70;;;;;;;21.03;100.00;94749.53;4871907;29;20036;-81